sensor_id;sensor_type;location;lat;lon;timestamp;pressure;altitude;pressure_sealevel;temperature;humidity
10652;BME280;5374;42.742;23.266;2023-11-19T00:02:13;95425.25;;;4.26;100.00
10652;BME280;5374;42.742;23.266;2023-11-19T00:05:01;95443.00;;;4.30;100.00
10652;BME280;5374;42.742;23.266;2023-11-19T00:07:48;95457.09;;;4.42;100.00
10652;BME280;5374;42.742;23.266;2023-11-19T00:10:37;95429.22;;;4.35;100.00
10652;BME280;5374;42.742;23.266;2023-11-19T00:13:24;95441.94;;;4.44;100.00
10652;BME280;5374;42.742;23.266;2023-11-19T00:16:11;95444.34;;;4.46;100.00
10652;BME280;5374;42.742;23.266;2023-11-19T00:18:59;95445.53;;;4.50;100.00
10652;BME280;5374;42.742;23.266;2023-11-19T00:21:46;95444.56;;;4.44;100.00
10652;BME280;5374;42.742;23.266;2023-11-19T00:24:33;95448.59;;;4.47;100.00
10652;BME280;5374;42.742;23.266;2023-11-19T00:27:22;95450.41;;;4.46;100.00
10652;BME280;5374;42.742;23.266;2023-11-19T00:30:09;95434.53;;;4.28;100.00
10652;BME280;5374;42.742;23.266;2023-11-19T00:32:57;95439.94;;;4.33;100.00
10652;BME280;5374;42.742;23.266;2023-11-19T00:35:44;95454.09;;;4.32;100.00
10652;BME280;5374;42.742;23.266;2023-11-19T00:38:31;95449.91;;;4.25;100.00
10652;BME280;5374;42.742;23.266;2023-11-19T00:41:24;95448.91;;;4.26;100.00
10652;BME280;5374;42.742;23.266;2023-11-19T00:44:14;95418.91;;;4.02;100.00
10652;BME280;5374;42.742;23.266;2023-11-19T00:47:05;95468.06;;;4.33;100.00
10652;BME280;5374;42.742;23.266;2023-11-19T00:49:53;95465.28;;;4.28;100.00
10652;BME280;5374;42.742;23.266;2023-11-19T00:52:43;95320.22;;;3.23;100.00
10652;BME280;5374;42.742;23.266;2023-11-19T00:55:36;95350.09;;;3.29;100.00
10652;BME280;5374;42.742;23.266;2023-11-19T00:58:25;95350.50;;;3.32;100.00
10652;BME280;5374;42.742;23.266;2023-11-19T01:01:16;95412.94;;;3.82;100.00
10652;BME280;5374;42.742;23.266;2023-11-19T01:04:07;95473.00;;;4.09;100.00
10652;BME280;5374;42.742;23.266;2023-11-19T01:06:59;95459.06;;;4.09;100.00
10652;BME280;5374;42.742;23.266;2023-11-19T01:09:47;95457.13;;;3.91;100.00
10652;BME280;5374;42.742;23.266;2023-11-19T01:12:36;95451.66;;;3.99;100.00
10652;BME280;5374;42.742;23.266;2023-11-19T01:15:27;95473.66;;;4.05;100.00
10652;BME280;5374;42.742;23.266;2023-11-19T01:18:18;95407.16;;;3.60;100.00
10652;BME280;5374;42.742;23.266;2023-11-19T01:21:12;95468.63;;;3.97;100.00
10652;BME280;5374;42.742;23.266;2023-11-19T01:24:00;95388.81;;;3.40;100.00
10652;BME280;5374;42.742;23.266;2023-11-19T01:26:48;95496.03;;;4.14;100.00
10652;BME280;5374;42.742;23.266;2023-11-19T01:29:36;95484.72;;;4.20;100.00
10652;BME280;5374;42.742;23.266;2023-11-19T01:32:23;95490.00;;;4.07;100.00
10652;BME280;5374;42.742;23.266;2023-11-19T01:35:12;95488.75;;;4.16;100.00
10652;BME280;5374;42.742;23.266;2023-11-19T01:38:00;95496.66;;;4.16;100.00
10652;BME280;5374;42.742;23.266;2023-11-19T01:40:47;95484.53;;;4.08;100.00
10652;BME280;5374;42.742;23.266;2023-11-19T01:43:35;95483.09;;;4.12;100.00
10652;BME280;5374;42.742;23.266;2023-11-19T01:46:22;95487.16;;;4.08;100.00
10652;BME280;5374;42.742;23.266;2023-11-19T01:49:09;95497.66;;;4.08;100.00
10652;BME280;5374;42.742;23.266;2023-11-19T01:51:59;95492.00;;;4.11;100.00
10652;BME280;5374;42.742;23.266;2023-11-19T01:54:46;95493.22;;;4.09;100.00
10652;BME280;5374;42.742;23.266;2023-11-19T01:57:34;95494.41;;;4.20;100.00
10652;BME280;5374;42.742;23.266;2023-11-19T02:00:23;95495.03;;;4.08;100.00
10652;BME280;5374;42.742;23.266;2023-11-19T02:03:11;95492.41;;;4.08;100.00
10652;BME280;5374;42.742;23.266;2023-11-19T02:05:59;95492.84;;;4.05;100.00
10652;BME280;5374;42.742;23.266;2023-11-19T02:08:47;95479.53;;;3.94;100.00
10652;BME280;5374;42.742;23.266;2023-11-19T02:11:34;95497.91;;;4.00;100.00
10652;BME280;5374;42.742;23.266;2023-11-19T02:14:24;95498.94;;;3.99;100.00
10652;BME280;5374;42.742;23.266;2023-11-19T02:17:25;95478.38;;;3.83;100.00
10652;BME280;5374;42.742;23.266;2023-11-19T02:20:13;95486.22;;;3.90;100.00
10652;BME280;5374;42.742;23.266;2023-11-19T02:23:01;95490.06;;;3.87;100.00
10652;BME280;5374;42.742;23.266;2023-11-19T02:26:00;95486.66;;;3.80;100.00
10652;BME280;5374;42.742;23.266;2023-11-19T02:28:50;95467.09;;;3.63;100.00
10652;BME280;5374;42.742;23.266;2023-11-19T02:31:38;95482.47;;;3.53;100.00
10652;BME280;5374;42.742;23.266;2023-11-19T02:34:25;95476.78;;;3.62;100.00
10652;BME280;5374;42.742;23.266;2023-11-19T02:37:12;95460.22;;;3.62;100.00
10652;BME280;5374;42.742;23.266;2023-11-19T02:40:00;95465.09;;;3.58;100.00
10652;BME280;5374;42.742;23.266;2023-11-19T02:42:55;95464.31;;;3.51;100.00
10652;BME280;5374;42.742;23.266;2023-11-19T02:45:45;95470.97;;;3.54;100.00
10652;BME280;5374;42.742;23.266;2023-11-19T02:48:32;95482.28;;;3.48;100.00
10652;BME280;5374;42.742;23.266;2023-11-19T02:51:21;95485.72;;;3.48;100.00
10652;BME280;5374;42.742;23.266;2023-11-19T02:54:08;95483.69;;;3.50;100.00
10652;BME280;5374;42.742;23.266;2023-11-19T02:56:55;95482.88;;;3.50;100.00
10652;BME280;5374;42.742;23.266;2023-11-19T02:59:45;95480.06;;;3.51;100.00
10652;BME280;5374;42.742;23.266;2023-11-19T03:02:33;95482.88;;;3.50;100.00
10652;BME280;5374;42.742;23.266;2023-11-19T03:05:29;95485.72;;;3.55;100.00
10652;BME280;5374;42.742;23.266;2023-11-19T03:08:16;95492.56;;;3.56;100.00
10652;BME280;5374;42.742;23.266;2023-11-19T03:11:04;95502.47;;;3.60;100.00
10652;BME280;5374;42.742;23.266;2023-11-19T03:13:51;95514.59;;;3.61;100.00
10652;BME280;5374;42.742;23.266;2023-11-19T03:16:38;95515.97;;;3.70;100.00
10652;BME280;5374;42.742;23.266;2023-11-19T03:19:27;95509.91;;;3.76;100.00
10652;BME280;5374;42.742;23.266;2023-11-19T03:22:14;95520.00;;;3.73;100.00
10652;BME280;5374;42.742;23.266;2023-11-19T03:25:01;95501.41;;;3.68;100.00
10652;BME280;5374;42.742;23.266;2023-11-19T03:27:48;95520.00;;;3.80;100.00
10652;BME280;5374;42.742;23.266;2023-11-19T03:30:36;95513.53;;;3.82;100.00
10652;BME280;5374;42.742;23.266;2023-11-19T03:33:23;95515.31;;;3.88;100.00
10652;BME280;5374;42.742;23.266;2023-11-19T03:36:13;95516.31;;;3.94;100.00
10652;BME280;5374;42.742;23.266;2023-11-19T03:39:00;95492.94;;;3.79;100.00
10652;BME280;5374;42.742;23.266;2023-11-19T03:41:47;95532.28;;;3.92;100.00
10652;BME280;5374;42.742;23.266;2023-11-19T03:44:34;95540.97;;;3.99;100.00
10652;BME280;5374;42.742;23.266;2023-11-19T03:47:21;95550.47;;;4.00;100.00
10652;BME280;5374;42.742;23.266;2023-11-19T03:50:08;95553.91;;;4.01;100.00
10652;BME280;5374;42.742;23.266;2023-11-19T03:52:57;95544.25;;;3.82;100.00
10652;BME280;5374;42.742;23.266;2023-11-19T03:55:45;95551.06;;;3.96;100.00
10652;BME280;5374;42.742;23.266;2023-11-19T03:58:32;95547.84;;;4.00;100.00
10652;BME280;5374;42.742;23.266;2023-11-19T04:01:19;95541.16;;;3.98;100.00
10652;BME280;5374;42.742;23.266;2023-11-19T04:04:07;95537.13;;;3.89;100.00
10652;BME280;5374;42.742;23.266;2023-11-19T04:06:55;95538.53;;;3.91;100.00
10652;BME280;5374;42.742;23.266;2023-11-19T04:09:45;95546.41;;;3.98;100.00
10652;BME280;5374;42.742;23.266;2023-11-19T04:12:32;95556.31;;;3.96;100.00
10652;BME280;5374;42.742;23.266;2023-11-19T04:15:19;95527.69;;;3.81;100.00
10652;BME280;5374;42.742;23.266;2023-11-19T04:18:06;95551.69;;;3.98;100.00
10652;BME280;5374;42.742;23.266;2023-11-19T04:20:54;95552.69;;;3.90;100.00
10652;BME280;5374;42.742;23.266;2023-11-19T04:23:41;95552.69;;;4.03;100.00
10652;BME280;5374;42.742;23.266;2023-11-19T04:26:30;95554.69;;;4.01;100.00
10652;BME280;5374;42.742;23.266;2023-11-19T04:29:17;95553.09;;;4.00;100.00
10652;BME280;5374;42.742;23.266;2023-11-19T04:32:05;95563.59;;;3.94;100.00
10652;BME280;5374;42.742;23.266;2023-11-19T04:34:53;95561.38;;;3.97;100.00
10652;BME280;5374;42.742;23.266;2023-11-19T04:37:41;95564.81;;;3.98;100.00
10652;BME280;5374;42.742;23.266;2023-11-19T04:40:29;95566.44;;;3.99;100.00
10652;BME280;5374;42.742;23.266;2023-11-19T04:43:17;95560.56;;;3.97;100.00
10652;BME280;5374;42.742;23.266;2023-11-19T04:46:06;95557.13;;;3.96;100.00
10652;BME280;5374;42.742;23.266;2023-11-19T04:48:54;95560.56;;;3.97;100.00
10652;BME280;5374;42.742;23.266;2023-11-19T04:51:41;95557.94;;;3.97;100.00
10652;BME280;5374;42.742;23.266;2023-11-19T04:54:29;95553.91;;;3.94;100.00
10652;BME280;5374;42.742;23.266;2023-11-19T04:57:17;95558.16;;;3.89;100.00
10652;BME280;5374;42.742;23.266;2023-11-19T05:00:07;95565.22;;;3.88;100.00
10652;BME280;5374;42.742;23.266;2023-11-19T05:02:56;95570.66;;;3.87;100.00
10652;BME280;5374;42.742;23.266;2023-11-19T05:05:44;95593.94;;;3.83;100.00
10652;BME280;5374;42.742;23.266;2023-11-19T05:08:31;95599.59;;;3.80;100.00
10652;BME280;5374;42.742;23.266;2023-11-19T05:11:19;95598.97;;;3.85;100.00
10652;BME280;5374;42.742;23.266;2023-11-19T05:14:06;95595.13;;;3.87;100.00
10652;BME280;5374;42.742;23.266;2023-11-19T05:16:56;95585.44;;;3.81;100.00
10652;BME280;5374;42.742;23.266;2023-11-19T05:19:43;95583.00;;;3.93;100.00
10652;BME280;5374;42.742;23.266;2023-11-19T05:22:30;95587.03;;;3.89;100.00
10652;BME280;5374;42.742;23.266;2023-11-19T05:25:18;95596.53;;;3.90;100.00
10652;BME280;5374;42.742;23.266;2023-11-19T05:28:05;95594.50;;;3.92;100.00
10652;BME280;5374;42.742;23.266;2023-11-19T05:30:53;95597.13;;;3.85;100.00
10652;BME280;5374;42.742;23.266;2023-11-19T05:33:42;95606.03;;;3.84;100.00
10652;BME280;5374;42.742;23.266;2023-11-19T05:36:30;95592.31;;;3.82;100.00
10652;BME280;5374;42.742;23.266;2023-11-19T05:39:17;95594.75;;;3.77;100.00
10652;BME280;5374;42.742;23.266;2023-11-19T05:42:08;95600.38;;;3.87;100.00
10652;BME280;5374;42.742;23.266;2023-11-19T05:44:56;95624.63;;;3.89;100.00
10652;BME280;5374;42.742;23.266;2023-11-19T05:47:43;95612.53;;;3.82;100.00
10652;BME280;5374;42.742;23.266;2023-11-19T05:50:32;95615.75;;;3.77;100.00
10652;BME280;5374;42.742;23.266;2023-11-19T05:53:19;95612.91;;;3.72;100.00
10652;BME280;5374;42.742;23.266;2023-11-19T05:56:08;95613.72;;;3.79;100.00
10652;BME280;5374;42.742;23.266;2023-11-19T05:58:56;95627.03;;;3.84;100.00
10652;BME280;5374;42.742;23.266;2023-11-19T06:01:46;95625.25;;;3.78;100.00
10652;BME280;5374;42.742;23.266;2023-11-19T06:04:33;95635.97;;;3.83;100.00
10652;BME280;5374;42.742;23.266;2023-11-19T06:07:22;95634.53;;;3.74;100.00
10652;BME280;5374;42.742;23.266;2023-11-19T06:10:09;95627.84;;;3.65;100.00
10652;BME280;5374;42.742;23.266;2023-11-19T06:12:58;95642.00;;;3.77;100.00
10652;BME280;5374;42.742;23.266;2023-11-19T06:15:46;95588.09;;;3.55;100.00
10652;BME280;5374;42.742;23.266;2023-11-19T06:18:33;95632.72;;;3.74;100.00
10652;BME280;5374;42.742;23.266;2023-11-19T06:21:20;95591.31;;;3.50;100.00
10652;BME280;5374;42.742;23.266;2023-11-19T06:24:09;95635.34;;;3.81;100.00
10652;BME280;5374;42.742;23.266;2023-11-19T06:26:56;95646.22;;;3.85;100.00
10652;BME280;5374;42.742;23.266;2023-11-19T06:29:43;95644.25;;;3.80;100.00
10652;BME280;5374;42.742;23.266;2023-11-19T06:32:31;95643.03;;;3.76;100.00
10652;BME280;5374;42.742;23.266;2023-11-19T06:35:18;95641.41;;;3.75;100.00
10652;BME280;5374;42.742;23.266;2023-11-19T06:38:05;95656.56;;;3.80;100.00
10652;BME280;5374;42.742;23.266;2023-11-19T06:40:54;95652.72;;;3.82;100.00
10652;BME280;5374;42.742;23.266;2023-11-19T06:43:41;95641.00;;;3.78;100.00
10652;BME280;5374;42.742;23.266;2023-11-19T06:46:29;95654.72;;;3.93;100.00
10652;BME280;5374;42.742;23.266;2023-11-19T06:49:16;95657.97;;;3.95;100.00
10652;BME280;5374;42.742;23.266;2023-11-19T06:52:04;95649.69;;;3.92;100.00
10652;BME280;5374;42.742;23.266;2023-11-19T06:54:51;95643.22;;;3.94;100.00
10652;BME280;5374;42.742;23.266;2023-11-19T06:57:40;95651.69;;;3.90;100.00
10652;BME280;5374;42.742;23.266;2023-11-19T07:00:27;95657.75;;;3.97;100.00
10652;BME280;5374;42.742;23.266;2023-11-19T07:03:14;95626.25;;;3.77;100.00
10652;BME280;5374;42.742;23.266;2023-11-19T07:06:02;95643.59;;;3.85;100.00
10652;BME280;5374;42.742;23.266;2023-11-19T07:08:49;95663.41;;;3.87;100.00
10652;BME280;5374;42.742;23.266;2023-11-19T07:11:37;95655.94;;;3.84;100.00
10652;BME280;5374;42.742;23.266;2023-11-19T07:14:26;95653.72;;;3.74;100.00
10652;BME280;5374;42.742;23.266;2023-11-19T07:17:14;95662.22;;;3.83;100.00
10652;BME280;5374;42.742;23.266;2023-11-19T07:20:01;95661.00;;;3.79;100.00
10652;BME280;5374;42.742;23.266;2023-11-19T07:22:50;95658.16;;;3.94;100.00
10652;BME280;5374;42.742;23.266;2023-11-19T07:25:37;95656.34;;;4.01;100.00
10652;BME280;5374;42.742;23.266;2023-11-19T07:28:24;95652.09;;;3.93;100.00
10652;BME280;5374;42.742;23.266;2023-11-19T07:31:13;95641.63;;;3.80;100.00
10652;BME280;5374;42.742;23.266;2023-11-19T07:34:00;95685.25;;;3.94;100.00
10652;BME280;5374;42.742;23.266;2023-11-19T07:36:47;95673.53;;;3.97;100.00
10652;BME280;5374;42.742;23.266;2023-11-19T07:39:34;95672.53;;;3.98;100.00
10652;BME280;5374;42.742;23.266;2023-11-19T07:42:23;95686.28;;;4.06;100.00
10652;BME280;5374;42.742;23.266;2023-11-19T07:45:10;95669.09;;;3.97;100.00
10652;BME280;5374;42.742;23.266;2023-11-19T07:47:59;95687.88;;;3.94;100.00
10652;BME280;5374;42.742;23.266;2023-11-19T07:50:47;95689.09;;;3.98;100.00
10652;BME280;5374;42.742;23.266;2023-11-19T07:53:35;95688.50;;;4.03;100.00
10652;BME280;5374;42.742;23.266;2023-11-19T07:56:24;95688.28;;;4.04;100.00
10652;BME280;5374;42.742;23.266;2023-11-19T07:59:11;95685.22;;;4.14;100.00
10652;BME280;5374;42.742;23.266;2023-11-19T08:01:58;95678.78;;;4.03;100.00
10652;BME280;5374;42.742;23.266;2023-11-19T08:04:47;95701.00;;;4.07;100.00
10652;BME280;5374;42.742;23.266;2023-11-19T08:07:37;95689.28;;;4.10;100.00
10652;BME280;5374;42.742;23.266;2023-11-19T08:10:24;95681.59;;;4.15;100.00
10652;BME280;5374;42.742;23.266;2023-11-19T08:13:11;95701.00;;;4.21;100.00
10652;BME280;5374;42.742;23.266;2023-11-19T08:15:59;95698.19;;;4.16;100.00
10652;BME280;5374;42.742;23.266;2023-11-19T08:18:46;95698.19;;;4.16;100.00
10652;BME280;5374;42.742;23.266;2023-11-19T08:21:34;95708.69;;;4.16;100.00
10652;BME280;5374;42.742;23.266;2023-11-19T08:24:22;95695.34;;;4.10;100.00
10652;BME280;5374;42.742;23.266;2023-11-19T08:27:09;95710.50;;;4.28;100.00
10652;BME280;5374;42.742;23.266;2023-11-19T08:29:58;95706.66;;;4.31;100.00
10652;BME280;5374;42.742;23.266;2023-11-19T08:32:45;95698.56;;;4.32;100.00
10652;BME280;5374;42.742;23.266;2023-11-19T08:35:33;95698.59;;;4.26;100.00
10652;BME280;5374;42.742;23.266;2023-11-19T08:38:21;95710.50;;;4.28;100.00
10652;BME280;5374;42.742;23.266;2023-11-19T08:41:09;95728.47;;;4.38;100.00
10652;BME280;5374;42.742;23.266;2023-11-19T08:43:56;95724.03;;;4.45;100.00
10652;BME280;5374;42.742;23.266;2023-11-19T08:46:47;95715.34;;;4.51;100.00
10652;BME280;5374;42.742;23.266;2023-11-19T08:49:34;95697.34;;;4.48;100.00
10652;BME280;5374;42.742;23.266;2023-11-19T08:52:21;95713.88;;;4.62;100.00
10652;BME280;5374;42.742;23.266;2023-11-19T08:55:10;95727.44;;;4.65;100.00
10652;BME280;5374;42.742;23.266;2023-11-19T08:57:59;95725.22;;;4.62;100.00
10652;BME280;5374;42.742;23.266;2023-11-19T09:00:46;95710.25;;;4.56;100.00
10652;BME280;5374;42.742;23.266;2023-11-19T09:03:34;95711.25;;;4.62;100.00
10652;BME280;5374;42.742;23.266;2023-11-19T09:06:22;95717.72;;;4.72;100.00
10652;BME280;5374;42.742;23.266;2023-11-19T09:09:09;95712.81;;;4.82;100.00
10652;BME280;5374;42.742;23.266;2023-11-19T09:11:58;95701.69;;;4.87;100.00
10652;BME280;5374;42.742;23.266;2023-11-19T09:14:45;95686.31;;;4.91;100.00
10652;BME280;5374;42.742;23.266;2023-11-19T09:17:35;95697.03;;;4.96;100.00
10652;BME280;5374;42.742;23.266;2023-11-19T09:20:22;95699.59;;;5.02;100.00
10652;BME280;5374;42.742;23.266;2023-11-19T09:23:09;95711.13;;;5.08;100.00
10652;BME280;5374;42.742;23.266;2023-11-19T09:25:57;95723.47;;;5.14;100.00
10652;BME280;5374;42.742;23.266;2023-11-19T09:28:47;95729.13;;;5.18;100.00
10652;BME280;5374;42.742;23.266;2023-11-19T09:31:37;95711.31;;;5.13;100.00
10652;BME280;5374;42.742;23.266;2023-11-19T09:34:24;95707.22;;;5.24;100.00
10652;BME280;5374;42.742;23.266;2023-11-19T09:37:11;95661.50;;;5.18;100.00
10652;BME280;5374;42.742;23.266;2023-11-19T09:39:58;95678.59;;;5.40;100.00
10652;BME280;5374;42.742;23.266;2023-11-19T09:42:47;95688.41;;;5.58;100.00
10652;BME280;5374;42.742;23.266;2023-11-19T09:45:46;95675.63;;;5.62;100.00
10652;BME280;5374;42.742;23.266;2023-11-19T09:48:35;95660.34;;;5.70;100.00
10652;BME280;5374;42.742;23.266;2023-11-19T09:51:22;95648.91;;;5.83;100.00
10652;BME280;5374;42.742;23.266;2023-11-19T09:54:10;95647.72;;;5.79;100.00
10652;BME280;5374;42.742;23.266;2023-11-19T09:56:59;95655.38;;;5.87;100.00
10652;BME280;5374;42.742;23.266;2023-11-19T09:59:50;95617.03;;;5.91;100.00
10652;BME280;5374;42.742;23.266;2023-11-19T10:02:39;95647.63;;;6.60;100.00
10652;BME280;5374;42.742;23.266;2023-11-19T10:05:27;95652.50;;;7.11;100.00
10652;BME280;5374;42.742;23.266;2023-11-19T10:08:14;95633.66;;;7.08;100.00
10652;BME280;5374;42.742;23.266;2023-11-19T10:11:02;95633.81;;;7.13;100.00
10652;BME280;5374;42.742;23.266;2023-11-19T10:13:51;95638.91;;;6.96;100.00
10652;BME280;5374;42.742;23.266;2023-11-19T10:16:39;95641.63;;;6.71;100.00
10652;BME280;5374;42.742;23.266;2023-11-19T10:19:27;95657.38;;;6.78;100.00
10652;BME280;5374;42.742;23.266;2023-11-19T10:22:15;95661.97;;;7.01;100.00
10652;BME280;5374;42.742;23.266;2023-11-19T10:25:04;95657.06;;;7.04;100.00
10652;BME280;5374;42.742;23.266;2023-11-19T10:27:53;95646.38;;;6.99;95.59
10652;BME280;5374;42.742;23.266;2023-11-19T10:30:41;95622.53;;;6.88;94.88
10652;BME280;5374;42.742;23.266;2023-11-19T10:33:30;95631.34;;;7.00;93.09
10652;BME280;5374;42.742;23.266;2023-11-19T10:36:18;95633.50;;;7.03;86.22
10652;BME280;5374;42.742;23.266;2023-11-19T10:39:06;95643.50;;;7.01;86.53
10652;BME280;5374;42.742;23.266;2023-11-19T10:41:54;95640.16;;;6.94;88.14
10652;BME280;5374;42.742;23.266;2023-11-19T10:44:42;95629.28;;;6.83;87.85
10652;BME280;5374;42.742;23.266;2023-11-19T10:47:29;95631.50;;;6.68;89.06
10652;BME280;5374;42.742;23.266;2023-11-19T10:50:18;95656.34;;;6.61;90.07
10652;BME280;5374;42.742;23.266;2023-11-19T10:53:09;95637.16;;;6.54;90.54
10652;BME280;5374;42.742;23.266;2023-11-19T10:55:58;95650.25;;;6.60;91.14
10652;BME280;5374;42.742;23.266;2023-11-19T10:58:46;95644.16;;;6.60;90.39
10652;BME280;5374;42.742;23.266;2023-11-19T11:01:41;95637.28;;;6.40;89.75
10652;BME280;5374;42.742;23.266;2023-11-19T11:04:32;95627.38;;;6.36;90.60
10652;BME280;5374;42.742;23.266;2023-11-19T11:07:21;95614.94;;;6.43;92.28
10652;BME280;5374;42.742;23.266;2023-11-19T11:10:13;95594.00;;;6.30;93.04
10652;BME280;5374;42.742;23.266;2023-11-19T11:13:02;95607.47;;;6.40;92.52
10652;BME280;5374;42.742;23.266;2023-11-19T11:15:50;95598.59;;;6.34;92.66
10652;BME280;5374;42.742;23.266;2023-11-19T11:18:39;95591.13;;;6.49;92.21
10652;BME280;5374;42.742;23.266;2023-11-19T11:21:27;95609.66;;;6.61;92.29
10652;BME280;5374;42.742;23.266;2023-11-19T11:24:33;95589.28;;;6.68;93.62
10652;BME280;5374;42.742;23.266;2023-11-19T11:31:13;95588.16;;;7.66;88.41
10652;BME280;5374;42.742;23.266;2023-11-19T11:34:19;95585.31;;;7.91;85.44
10652;BME280;5374;42.742;23.266;2023-11-19T11:37:18;95575.78;;;8.13;83.93
10652;BME280;5374;42.742;23.266;2023-11-19T11:40:07;95576.91;;;8.29;83.65
10652;BME280;5374;42.742;23.266;2023-11-19T11:42:55;95574.59;;;8.20;80.25
10652;BME280;5374;42.742;23.266;2023-11-19T11:45:43;95575.53;;;8.03;81.91
10652;BME280;5374;42.742;23.266;2023-11-19T11:48:33;95563.69;;;8.05;81.32
10652;BME280;5374;42.742;23.266;2023-11-19T11:52:00;95563.81;;;7.87;81.83
10652;BME280;5374;42.742;23.266;2023-11-19T11:54:49;95562.66;;;7.95;81.94
10652;BME280;5374;42.742;23.266;2023-11-19T11:57:36;95562.41;;;7.96;80.89
10652;BME280;5374;42.742;23.266;2023-11-19T12:00:26;95573.91;;;8.13;81.50
10652;BME280;5374;42.742;23.266;2023-11-19T12:03:14;95552.66;;;8.08;79.03
10652;BME280;5374;42.742;23.266;2023-11-19T12:06:04;95554.72;;;8.06;78.82
10652;BME280;5374;42.742;23.266;2023-11-19T12:08:51;95558.16;;;7.95;78.86
10652;BME280;5374;42.742;23.266;2023-11-19T12:11:47;95542.88;;;7.97;80.46
10652;BME280;5374;42.742;23.266;2023-11-19T12:15:03;95540.03;;;7.87;79.35
10652;BME280;5374;42.742;23.266;2023-11-19T12:17:52;95543.25;;;7.89;81.76
10652;BME280;5374;42.742;23.266;2023-11-19T12:20:39;95531.06;;;7.88;80.35
10652;BME280;5374;42.742;23.266;2023-11-19T12:23:29;95523.44;;;7.92;80.79
10652;BME280;5374;42.742;23.266;2023-11-19T12:26:33;95514.50;;;7.81;81.97
10652;BME280;5374;42.742;23.266;2023-11-19T12:29:20;95533.34;;;7.96;81.26
10652;BME280;5374;42.742;23.266;2023-11-19T12:32:08;95519.09;;;7.74;79.57
10652;BME280;5374;42.742;23.266;2023-11-19T12:34:55;95503.00;;;7.64;81.27
10652;BME280;5374;42.742;23.266;2023-11-19T12:37:43;95519.91;;;7.63;81.39
10652;BME280;5374;42.742;23.266;2023-11-19T12:40:34;95514.13;;;7.54;81.45
10652;BME280;5374;42.742;23.266;2023-11-19T12:43:21;95510.56;;;7.37;83.21
10652;BME280;5374;42.742;23.266;2023-11-19T12:46:17;95418.72;;;6.74;83.59
10652;BME280;5374;42.742;23.266;2023-11-19T12:49:05;95505.59;;;7.29;84.29
10652;BME280;5374;42.742;23.266;2023-11-19T12:51:52;95497.22;;;7.20;84.96
10652;BME280;5374;42.742;23.266;2023-11-19T12:54:39;95490.78;;;7.16;86.90
10652;BME280;5374;42.742;23.266;2023-11-19T12:57:43;95506.28;;;7.24;87.29
10652;BME280;5374;42.742;23.266;2023-11-19T13:00:31;95499.72;;;7.27;87.22
10652;BME280;5374;42.742;23.266;2023-11-19T13:03:29;95491.72;;;7.22;85.83
10652;BME280;5374;42.742;23.266;2023-11-19T13:06:16;95485.41;;;7.23;86.50
10652;BME280;5374;42.742;23.266;2023-11-19T13:09:06;95489.66;;;7.35;85.99
10652;BME280;5374;42.742;23.266;2023-11-19T13:11:58;95488.81;;;7.23;87.42
10652;BME280;5374;42.742;23.266;2023-11-19T13:14:50;95490.09;;;7.32;86.79
10652;BME280;5374;42.742;23.266;2023-11-19T13:17:39;95487.25;;;7.34;86.75
10652;BME280;5374;42.742;23.266;2023-11-19T13:20:26;95468.41;;;7.30;86.88
10652;BME280;5374;42.742;23.266;2023-11-19T13:23:14;95456.91;;;7.36;87.55
10652;BME280;5374;42.742;23.266;2023-11-19T13:26:01;95455.56;;;7.45;87.17
10652;BME280;5374;42.742;23.266;2023-11-19T13:28:49;95400.50;;;6.96;85.89
10652;BME280;5374;42.742;23.266;2023-11-19T13:31:38;95451.84;;;7.23;86.09
10652;BME280;5374;42.742;23.266;2023-11-19T13:34:25;95467.34;;;7.31;88.11
10652;BME280;5374;42.742;23.266;2023-11-19T13:37:13;95466.09;;;7.34;87.90
10652;BME280;5374;42.742;23.266;2023-11-19T13:40:00;95454.03;;;7.26;89.02
10652;BME280;5374;42.742;23.266;2023-11-19T13:42:47;95479.78;;;7.42;88.14
10652;BME280;5374;42.742;23.266;2023-11-19T13:45:34;95492.28;;;7.35;87.80
10652;BME280;5374;42.742;23.266;2023-11-19T13:48:22;95477.56;;;7.16;88.72
10652;BME280;5374;42.742;23.266;2023-11-19T13:51:10;95477.81;;;7.26;88.90
10652;BME280;5374;42.742;23.266;2023-11-19T13:53:57;95479.06;;;7.24;88.91
10652;BME280;5374;42.742;23.266;2023-11-19T13:56:44;95484.09;;;7.25;89.00
10652;BME280;5374;42.742;23.266;2023-11-19T13:59:32;95478.38;;;7.28;88.35
10652;BME280;5374;42.742;23.266;2023-11-19T14:02:19;95465.25;;;7.10;87.65
10652;BME280;5374;42.742;23.266;2023-11-19T14:05:08;95507.28;;;7.23;88.26
10652;BME280;5374;42.742;23.266;2023-11-19T14:07:56;95477.06;;;6.96;88.86
10652;BME280;5374;42.742;23.266;2023-11-19T14:10:43;95491.66;;;7.10;90.50
10652;BME280;5374;42.742;23.266;2023-11-19T14:13:31;95513.34;;;7.00;90.14
10652;BME280;5374;42.742;23.266;2023-11-19T14:16:18;95504.00;;;6.86;91.35
10652;BME280;5374;42.742;23.266;2023-11-19T14:19:06;95517.41;;;6.84;93.71
10652;BME280;5374;42.742;23.266;2023-11-19T14:21:54;95522.03;;;6.89;94.06
10652;BME280;5374;42.742;23.266;2023-11-19T14:24:41;95523.34;;;6.80;93.66
10652;BME280;5374;42.742;23.266;2023-11-19T14:27:29;95526.84;;;6.62;94.10
10652;BME280;5374;42.742;23.266;2023-11-19T14:30:18;95511.91;;;6.56;95.33
10652;BME280;5374;42.742;23.266;2023-11-19T14:33:05;95497.84;;;6.44;96.51
10652;BME280;5374;42.742;23.266;2023-11-19T14:35:53;95481.84;;;6.27;96.30
10652;BME280;5374;42.742;23.266;2023-11-19T14:38:41;95516.31;;;6.44;96.68
10652;BME280;5374;42.742;23.266;2023-11-19T14:41:28;95494.06;;;6.40;96.46
10652;BME280;5374;42.742;23.266;2023-11-19T14:44:16;95498.38;;;6.34;97.18
10652;BME280;5374;42.742;23.266;2023-11-19T14:47:03;95519.41;;;6.41;97.91
10652;BME280;5374;42.742;23.266;2023-11-19T14:49:51;95457.31;;;5.90;97.69
10652;BME280;5374;42.742;23.266;2023-11-19T14:52:38;95489.69;;;6.15;98.18
10652;BME280;5374;42.742;23.266;2023-11-19T14:55:27;95445.97;;;5.90;97.96
10652;BME280;5374;42.742;23.266;2023-11-19T14:58:14;95495.16;;;6.14;98.80
10652;BME280;5374;42.742;23.266;2023-11-19T15:01:01;95503.28;;;6.12;98.49